sensor_id;sensor_type;location;lat;lon;timestamp;pressure;altitude;pressure_sealevel;temperature;humidity
43745;BME280;29359;53.048;8.732;2023-05-11T00:01:06;101525.59;;;12.43;82.47
43745;BME280;29359;53.048;8.732;2023-05-11T00:03:08;101518.59;;;12.41;82.55
43745;BME280;29359;53.048;8.732;2023-05-11T00:05:10;101528.28;;;12.42;82.61
43745;BME280;29359;53.048;8.732;2023-05-11T00:07:12;101523.03;;;12.40;82.50
43745;BME280;29359;53.048;8.732;2023-05-11T00:09:13;101526.59;;;12.39;82.97
43745;BME280;29359;53.048;8.732;2023-05-11T00:11:15;101526.63;;;12.38;83.46
43745;BME280;29359;53.048;8.732;2023-05-11T00:13:18;101522.19;;;12.38;83.97
43745;BME280;29359;53.048;8.732;2023-05-11T00:15:20;101523.97;;;12.38;83.50
43745;BME280;29359;53.048;8.732;2023-05-11T00:17:22;101530.19;;;12.37;83.21
43745;BME280;29359;53.048;8.732;2023-05-11T00:19:23;101522.22;;;12.37;83.27
43745;BME280;29359;53.048;8.732;2023-05-11T00:21:25;101526.63;;;12.38;82.89
43745;BME280;29359;53.048;8.732;2023-05-11T00:23:27;101529.28;;;12.38;83.28
43745;BME280;29359;53.048;8.732;2023-05-11T00:25:28;101524.84;;;12.38;82.77
43745;BME280;29359;53.048;8.732;2023-05-11T00:27:30;101525.75;;;12.37;81.57
43745;BME280;29359;53.048;8.732;2023-05-11T00:29:31;101527.50;;;12.38;81.22
43745;BME280;29359;53.048;8.732;2023-05-11T00:31:33;101518.69;;;12.38;81.42
43745;BME280;29359;53.048;8.732;2023-05-11T00:33:34;101525.75;;;12.37;80.78
43745;BME280;29359;53.048;8.732;2023-05-11T00:35:36;101522.19;;;12.38;80.60
43745;BME280;29359;53.048;8.732;2023-05-11T00:37:38;101524.81;;;12.40;79.74
43745;BME280;29359;53.048;8.732;2023-05-11T00:39:39;101521.28;;;12.39;78.62
43745;BME280;29359;53.048;8.732;2023-05-11T00:41:41;101516.00;;;12.39;77.74
43745;BME280;29359;53.048;8.732;2023-05-11T00:43:43;101512.47;;;12.39;76.95
43745;BME280;29359;53.048;8.732;2023-05-11T00:45:44;101511.66;;;12.37;77.17
43745;BME280;29359;53.048;8.732;2023-05-11T00:47:48;101509.91;;;12.36;76.97
43745;BME280;29359;53.048;8.732;2023-05-11T00:49:51;101510.81;;;12.35;77.07
43745;BME280;29359;53.048;8.732;2023-05-11T00:51:53;101506.44;;;12.34;76.89
43745;BME280;29359;53.048;8.732;2023-05-11T00:53:55;101508.25;;;12.32;77.19
43745;BME280;29359;53.048;8.732;2023-05-11T00:55:57;101507.38;;;12.31;77.35
43745;BME280;29359;53.048;8.732;2023-05-11T00:57:59;101513.56;;;12.30;78.09
43745;BME280;29359;53.048;8.732;2023-05-11T01:00:01;101517.97;;;12.31;77.42
43745;BME280;29359;53.048;8.732;2023-05-11T01:02:04;101518.88;;;12.30;77.25
43745;BME280;29359;53.048;8.732;2023-05-11T01:04:05;101512.75;;;12.28;77.01
43745;BME280;29359;53.048;8.732;2023-05-11T01:06:11;101515.44;;;12.26;77.06
43745;BME280;29359;53.048;8.732;2023-05-11T01:08:24;101519.84;;;12.26;77.50
43745;BME280;29359;53.048;8.732;2023-05-11T01:10:54;101524.31;;;12.24;77.49
43745;BME280;29359;53.048;8.732;2023-05-11T01:13:24;101520.84;;;12.22;77.15
43745;BME280;29359;53.048;8.732;2023-05-11T01:15:49;101522.63;;;12.21;77.24
43745;BME280;29359;53.048;8.732;2023-05-11T01:18:09;101520.88;;;12.20;77.42
43745;BME280;29359;53.048;8.732;2023-05-11T01:20:16;101529.69;;;12.21;77.19
43745;BME280;29359;53.048;8.732;2023-05-11T01:32:24;101534.19;;;12.17;77.40
43745;BME280;29359;53.048;8.732;2023-05-11T01:34:29;101528.88;;;12.17;77.82
43745;BME280;29359;53.048;8.732;2023-05-11T01:36:34;101528.88;;;12.17;78.58
43745;BME280;29359;53.048;8.732;2023-05-11T01:38:39;101530.63;;;12.18;77.94
43745;BME280;29359;53.048;8.732;2023-05-11T01:40:42;101529.75;;;12.18;77.53
43745;BME280;29359;53.048;8.732;2023-05-11T01:42:47;101534.16;;;12.19;77.59
43745;BME280;29359;53.048;8.732;2023-05-11T01:44:52;101530.66;;;12.17;77.89
43745;BME280;29359;53.048;8.732;2023-05-11T01:46:57;101529.75;;;12.18;77.22
43745;BME280;29359;53.048;8.732;2023-05-11T01:49:05;101534.19;;;12.17;77.52
43745;BME280;29359;53.048;8.732;2023-05-11T01:51:07;101535.06;;;12.18;77.22
43745;BME280;29359;53.048;8.732;2023-05-11T01:53:11;101536.84;;;12.17;77.19
43745;BME280;29359;53.048;8.732;2023-05-11T01:55:16;101537.69;;;12.18;77.09
43745;BME280;29359;53.048;8.732;2023-05-11T01:57:20;101540.34;;;12.18;77.30
43745;BME280;29359;53.048;8.732;2023-05-11T01:59:24;101539.47;;;12.17;77.61
43745;BME280;29359;53.048;8.732;2023-05-11T02:01:28;101535.97;;;12.17;77.00
43745;BME280;29359;53.048;8.732;2023-05-11T02:03:31;101542.13;;;12.17;77.29
43745;BME280;29359;53.048;8.732;2023-05-11T02:05:35;101544.78;;;12.17;77.52
43745;BME280;29359;53.048;8.732;2023-05-11T02:07:40;101550.06;;;12.17;77.73
43745;BME280;29359;53.048;8.732;2023-05-11T02:09:43;101557.09;;;12.18;77.71
43745;BME280;29359;53.048;8.732;2023-05-11T02:11:47;101550.94;;;12.18;77.80
43745;BME280;29359;53.048;8.732;2023-05-11T02:13:50;101552.72;;;12.17;77.61
43745;BME280;29359;53.048;8.732;2023-05-11T02:15:55;101556.22;;;12.18;77.02
43745;BME280;29359;53.048;8.732;2023-05-11T02:17:57;101557.09;;;12.18;77.34
43745;BME280;29359;53.048;8.732;2023-05-11T02:20:00;101553.59;;;12.18;77.13
43745;BME280;29359;53.048;8.732;2023-05-11T02:22:04;101556.19;;;12.19;76.96
43745;BME280;29359;53.048;8.732;2023-05-11T02:24:07;101559.78;;;12.17;77.03
43745;BME280;29359;53.048;8.732;2023-05-11T02:26:09;101563.31;;;12.17;76.95
43745;BME280;29359;53.048;8.732;2023-05-11T02:28:13;101559.78;;;12.17;76.67
43745;BME280;29359;53.048;8.732;2023-05-11T02:30:15;101558.03;;;12.16;76.51
43745;BME280;29359;53.048;8.732;2023-05-11T02:32:19;101553.66;;;12.15;76.54
43745;BME280;29359;53.048;8.732;2023-05-11T02:34:24;101568.69;;;12.13;76.72
43745;BME280;29359;53.048;8.732;2023-05-11T02:36:27;101565.19;;;12.11;76.83
43745;BME280;29359;53.048;8.732;2023-05-11T02:38:32;101567.00;;;12.09;76.90
43745;BME280;29359;53.048;8.732;2023-05-11T02:40:43;101563.56;;;12.05;77.15
43745;BME280;29359;53.048;8.732;2023-05-11T02:42:48;101557.41;;;12.05;77.39
43745;BME280;29359;53.048;8.732;2023-05-11T02:45:26;101570.63;;;12.05;77.11
43745;BME280;29359;53.048;8.732;2023-05-11T02:47:26;101562.72;;;12.03;77.01
43745;BME280;29359;53.048;8.732;2023-05-11T02:49:30;101565.41;;;12.02;77.22
43745;BME280;29359;53.048;8.732;2023-05-11T02:51:35;101571.59;;;12.01;77.30
43745;BME280;29359;53.048;8.732;2023-05-11T02:53:39;101575.19;;;11.98;77.60
43745;BME280;29359;53.048;8.732;2023-05-11T02:55:41;101571.69;;;11.98;77.84
43745;BME280;29359;53.048;8.732;2023-05-11T02:57:44;101567.28;;;11.97;77.56
43745;BME280;29359;53.048;8.732;2023-05-11T02:59:46;101573.44;;;11.97;77.52
43745;BME280;29359;53.048;8.732;2023-05-11T03:01:48;101567.28;;;11.97;77.50
43745;BME280;29359;53.048;8.732;2023-05-11T03:03:51;101573.44;;;11.97;77.50
43745;BME280;29359;53.048;8.732;2023-05-11T03:05:53;101576.97;;;11.98;77.52
43745;BME280;29359;53.048;8.732;2023-05-11T03:07:57;101574.28;;;11.99;77.79
43745;BME280;29359;53.048;8.732;2023-05-11T03:10:01;101575.19;;;11.98;77.56
43745;BME280;29359;53.048;8.732;2023-05-11T03:12:03;101568.13;;;11.99;77.81
43745;BME280;29359;53.048;8.732;2023-05-11T03:14:06;101566.34;;;11.99;77.20
43745;BME280;29359;53.048;8.732;2023-05-11T03:16:08;101576.94;;;11.99;77.22
43745;BME280;29359;53.048;8.732;2023-05-11T03:18:12;101573.44;;;11.97;77.32
43745;BME280;29359;53.048;8.732;2023-05-11T03:20:14;101573.44;;;11.97;77.29
43745;BME280;29359;53.048;8.732;2023-05-11T03:22:18;101578.72;;;11.99;77.66
43745;BME280;29359;53.048;8.732;2023-05-11T03:24:20;101577.84;;;11.98;77.72
43745;BME280;29359;53.048;8.732;2023-05-11T03:26:26;101570.75;;;11.99;77.49
43745;BME280;29359;53.048;8.732;2023-05-11T03:28:29;101578.72;;;11.99;77.16
43745;BME280;29359;53.048;8.732;2023-05-11T03:30:32;101572.56;;;11.97;76.77
43745;BME280;29359;53.048;8.732;2023-05-11T03:32:34;101573.44;;;11.97;77.25
43745;BME280;29359;53.048;8.732;2023-05-11T03:34:36;101573.44;;;11.97;77.32
43745;BME280;29359;53.048;8.732;2023-05-11T03:36:38;101570.81;;;11.97;77.50
43745;BME280;29359;53.048;8.732;2023-05-11T03:38:41;101571.72;;;11.96;77.70
43745;BME280;29359;53.048;8.732;2023-05-11T03:40:45;101572.53;;;11.98;77.29
43745;BME280;29359;53.048;8.732;2023-05-11T03:42:48;101570.81;;;11.97;77.02
43745;BME280;29359;53.048;8.732;2023-05-11T03:44:53;101575.19;;;11.98;77.34
43745;BME280;29359;53.048;8.732;2023-05-11T03:46:59;101571.63;;;11.99;77.03
43745;BME280;29359;53.048;8.732;2023-05-11T03:49:03;101570.72;;;12.00;77.06
43745;BME280;29359;53.048;8.732;2023-05-11T03:51:05;101568.09;;;12.00;77.42
43745;BME280;29359;53.048;8.732;2023-05-11T03:53:07;101573.38;;;12.00;77.57
43745;BME280;29359;53.048;8.732;2023-05-11T03:55:09;101572.50;;;12.00;77.79
43745;BME280;29359;53.048;8.732;2023-05-11T03:57:12;101575.13;;;12.01;77.20
43745;BME280;29359;53.048;8.732;2023-05-11T03:59:15;101569.78;;;12.03;76.69
43745;BME280;29359;53.048;8.732;2023-05-11T04:01:17;101571.56;;;12.02;76.68
43745;BME280;29359;53.048;8.732;2023-05-11T04:03:19;101570.69;;;12.02;76.52
43745;BME280;29359;53.048;8.732;2023-05-11T04:05:20;101578.63;;;12.02;76.52
43745;BME280;29359;53.048;8.732;2023-05-11T04:07:22;101577.75;;;12.01;76.52
43745;BME280;29359;53.048;8.732;2023-05-11T04:09:24;101571.56;;;12.02;76.56
43745;BME280;29359;53.048;8.732;2023-05-11T04:11:25;101575.09;;;12.03;76.29
43745;BME280;29359;53.048;8.732;2023-05-11T04:13:27;101569.78;;;12.03;76.41
43745;BME280;29359;53.048;8.732;2023-05-11T04:15:29;101576.88;;;12.02;76.13
43745;BME280;29359;53.048;8.732;2023-05-11T04:17:30;101577.72;;;12.03;76.71
43745;BME280;29359;53.048;8.732;2023-05-11T04:19:32;101579.47;;;12.04;76.75
43745;BME280;29359;53.048;8.732;2023-05-11T04:21:34;101569.75;;;12.04;76.59
43745;BME280;29359;53.048;8.732;2023-05-11T04:23:36;101577.69;;;12.04;76.41
43745;BME280;29359;53.048;8.732;2023-05-11T04:25:38;101574.22;;;12.02;75.99
43745;BME280;29359;53.048;8.732;2023-05-11T04:27:39;101577.75;;;12.01;76.46
43745;BME280;29359;53.048;8.732;2023-05-11T04:29:41;101579.56;;;11.99;76.43
43745;BME280;29359;53.048;8.732;2023-05-11T04:31:43;101577.91;;;11.95;76.51
43745;BME280;29359;53.048;8.732;2023-05-11T04:33:44;101577.91;;;11.95;76.52
43745;BME280;29359;53.048;8.732;2023-05-11T04:35:46;101584.09;;;11.94;76.69
43745;BME280;29359;53.048;8.732;2023-05-11T04:37:49;101573.50;;;11.94;76.92
43745;BME280;29359;53.048;8.732;2023-05-11T04:39:51;101581.41;;;11.95;76.51
43745;BME280;29359;53.048;8.732;2023-05-11T04:41:52;101583.19;;;11.95;76.89
43745;BME280;29359;53.048;8.732;2023-05-11T04:43:54;101583.19;;;11.95;76.66
43745;BME280;29359;53.048;8.732;2023-05-11T04:45:55;101579.69;;;11.94;76.44
43745;BME280;29359;53.048;8.732;2023-05-11T04:47:57;101589.44;;;11.92;76.57
43745;BME280;29359;53.048;8.732;2023-05-11T04:49:58;101587.72;;;11.90;76.48
43745;BME280;29359;53.048;8.732;2023-05-11T04:52:00;101576.22;;;11.91;76.63
43745;BME280;29359;53.048;8.732;2023-05-11T04:54:01;101587.72;;;11.90;76.93
43745;BME280;29359;53.048;8.732;2023-05-11T04:56:03;101586.84;;;11.89;77.09
43745;BME280;29359;53.048;8.732;2023-05-11T04:58:05;101587.75;;;11.88;76.83
43745;BME280;29359;53.048;8.732;2023-05-11T05:00:07;101585.06;;;11.90;77.33
43745;BME280;29359;53.048;8.732;2023-05-11T05:02:09;101585.91;;;11.92;77.46
43745;BME280;29359;53.048;8.732;2023-05-11T05:04:11;101594.69;;;11.94;77.80
43745;BME280;29359;53.048;8.732;2023-05-11T05:06:12;101594.63;;;11.97;77.37
43745;BME280;29359;53.048;8.732;2023-05-11T05:08:14;101588.41;;;11.98;76.91
43745;BME280;29359;53.048;8.732;2023-05-11T05:10:16;101596.34;;;11.98;76.77
43745;BME280;29359;53.048;8.732;2023-05-11T05:12:18;101592.84;;;11.98;76.73
43745;BME280;29359;53.048;8.732;2023-05-11T05:14:19;101593.72;;;11.98;77.08
43745;BME280;29359;53.048;8.732;2023-05-11T05:16:21;101594.56;;;12.00;76.73
43745;BME280;29359;53.048;8.732;2023-05-11T05:18:22;101598.97;;;12.00;76.51
43745;BME280;29359;53.048;8.732;2023-05-11T05:20:24;101601.63;;;12.00;76.40
43745;BME280;29359;53.048;8.732;2023-05-11T05:22:25;101601.59;;;12.01;76.59
43745;BME280;29359;53.048;8.732;2023-05-11T05:24:27;101601.56;;;12.03;77.00
43745;BME280;29359;53.048;8.732;2023-05-11T05:26:28;101604.16;;;12.04;76.86
43745;BME280;29359;53.048;8.732;2023-05-11T05:28:30;101609.38;;;12.07;76.79
43745;BME280;29359;53.048;8.732;2023-05-11T05:30:31;101608.47;;;12.08;77.00
43745;BME280;29359;53.048;8.732;2023-05-11T05:32:33;101608.44;;;12.10;76.83
43745;BME280;29359;53.048;8.732;2023-05-11T05:34:35;101614.53;;;12.13;76.67
43745;BME280;29359;53.048;8.732;2023-05-11T05:36:36;101616.31;;;12.14;76.53
43745;BME280;29359;53.048;8.732;2023-05-11T05:38:39;101614.53;;;12.15;76.40
43745;BME280;29359;53.048;8.732;2023-05-11T05:40:40;101618.91;;;12.17;76.67
43745;BME280;29359;53.048;8.732;2023-05-11T05:42:42;101623.25;;;12.20;78.96
43745;BME280;29359;53.048;8.732;2023-05-11T05:44:44;101625.94;;;12.18;79.17
43745;BME280;29359;53.048;8.732;2023-05-11T05:46:45;101623.25;;;12.20;79.05
43745;BME280;29359;53.048;8.732;2023-05-11T05:48:47;101626.72;;;12.22;77.72
43745;BME280;29359;53.048;8.732;2023-05-11T05:50:48;101628.44;;;12.24;77.12
43745;BME280;29359;53.048;8.732;2023-05-11T05:52:51;101634.56;;;12.26;75.99
43745;BME280;29359;53.048;8.732;2023-05-11T05:54:52;101630.09;;;12.29;76.86
43745;BME280;29359;53.048;8.732;2023-05-11T05:56:53;101637.13;;;12.31;76.58
43745;BME280;29359;53.048;8.732;2023-05-11T05:58:55;101639.66;;;12.36;76.57
43745;BME280;29359;53.048;8.732;2023-05-11T06:00:57;101643.09;;;12.39;75.71
43745;BME280;29359;53.048;8.732;2023-05-11T06:02:58;101643.03;;;12.42;76.48
43745;BME280;29359;53.048;8.732;2023-05-11T06:05:00;101645.69;;;12.42;74.89
43745;BME280;29359;53.048;8.732;2023-05-11T06:07:02;101642.19;;;12.40;75.02
43745;BME280;29359;53.048;8.732;2023-05-11T06:09:03;101648.31;;;12.42;75.97
43745;BME280;29359;53.048;8.732;2023-05-11T06:11:05;101644.72;;;12.45;75.58
43745;BME280;29359;53.048;8.732;2023-05-11T06:13:06;101646.50;;;12.44;75.52
43745;BME280;29359;53.048;8.732;2023-05-11T06:15:09;101652.66;;;12.46;75.33
43745;BME280;29359;53.048;8.732;2023-05-11T06:17:10;101650.84;;;12.48;75.21
43745;BME280;29359;53.048;8.732;2023-05-11T06:19:12;101650.84;;;12.48;75.23
43745;BME280;29359;53.048;8.732;2023-05-11T06:21:13;101653.44;;;12.50;75.13
43745;BME280;29359;53.048;8.732;2023-05-11T06:23:15;101650.72;;;12.53;75.39
43745;BME280;29359;53.048;8.732;2023-05-11T06:25:16;101648.91;;;12.55;75.60
43745;BME280;29359;53.048;8.732;2023-05-11T06:27:18;101651.53;;;12.58;74.90
43745;BME280;29359;53.048;8.732;2023-05-11T06:29:19;101651.53;;;12.58;74.96
43745;BME280;29359;53.048;8.732;2023-05-11T06:31:22;101648.78;;;12.61;74.84
43745;BME280;29359;53.048;8.732;2023-05-11T06:33:25;101653.19;;;12.62;75.10
43745;BME280;29359;53.048;8.732;2023-05-11T06:35:26;101648.72;;;12.64;75.76
43745;BME280;29359;53.048;8.732;2023-05-11T06:37:28;101653.09;;;12.65;74.89
43745;BME280;29359;53.048;8.732;2023-05-11T06:39:30;101649.56;;;12.66;75.60
43745;BME280;29359;53.048;8.732;2023-05-11T06:41:31;101644.25;;;12.66;74.64
43745;BME280;29359;53.048;8.732;2023-05-11T06:43:33;101641.56;;;12.68;73.96
43745;BME280;29359;53.048;8.732;2023-05-11T06:45:34;101645.91;;;12.70;74.06
43745;BME280;29359;53.048;8.732;2023-05-11T06:47:37;101647.59;;;12.74;75.18
43745;BME280;29359;53.048;8.732;2023-05-11T06:49:42;101650.16;;;12.77;75.45
43745;BME280;29359;53.048;8.732;2023-05-11T06:51:44;101643.91;;;12.80;74.96
43745;BME280;29359;53.048;8.732;2023-05-11T06:53:46;101652.66;;;12.83;74.30
43745;BME280;29359;53.048;8.732;2023-05-11T06:55:47;101647.28;;;12.86;74.09
43745;BME280;29359;53.048;8.732;2023-05-11T06:57:49;101651.69;;;12.87;74.09
43745;BME280;29359;53.048;8.732;2023-05-11T06:59:50;101651.63;;;12.89;73.58
43745;BME280;29359;53.048;8.732;2023-05-11T07:01:52;101643.59;;;12.92;73.81
43745;BME280;29359;53.048;8.732;2023-05-11T07:03:54;101651.44;;;12.97;73.86
43745;BME280;29359;53.048;8.732;2023-05-11T07:05:55;101654.88;;;13.00;73.24
43745;BME280;29359;53.048;8.732;2023-05-11T07:07:57;101650.44;;;13.02;73.28
43745;BME280;29359;53.048;8.732;2023-05-11T07:09:58;101648.63;;;13.04;72.78
43745;BME280;29359;53.048;8.732;2023-05-11T07:12:00;101656.47;;;13.09;73.20
43745;BME280;29359;53.048;8.732;2023-05-11T07:14:02;101654.53;;;13.15;73.23
43745;BME280;29359;53.048;8.732;2023-05-11T07:16:03;101654.41;;;13.22;74.42
43745;BME280;29359;53.048;8.732;2023-05-11T07:18:05;101649.88;;;13.25;73.71
43745;BME280;29359;53.048;8.732;2023-05-11T07:20:07;101647.19;;;13.27;73.21
43745;BME280;29359;53.048;8.732;2023-05-11T07:22:09;101653.28;;;13.30;72.71
43745;BME280;29359;53.048;8.732;2023-05-11T07:24:11;101654.09;;;13.32;72.02
43745;BME280;29359;53.048;8.732;2023-05-11T07:26:13;101648.72;;;13.35;72.08
43745;BME280;29359;53.048;8.732;2023-05-11T07:28:14;101660.13;;;13.39;71.94
43745;BME280;29359;53.048;8.732;2023-05-11T07:30:16;101649.41;;;13.42;71.81
43745;BME280;29359;53.048;8.732;2023-05-11T07:32:19;101652.84;;;13.47;72.48
43745;BME280;29359;53.048;8.732;2023-05-11T07:34:20;101655.47;;;13.48;72.86
43745;BME280;29359;53.048;8.732;2023-05-11T07:36:22;101658.91;;;13.52;72.51
43745;BME280;29359;53.048;8.732;2023-05-11T07:38:24;101657.03;;;13.56;73.05
43745;BME280;29359;53.048;8.732;2023-05-11T07:40:25;101651.59;;;13.60;76.22
43745;BME280;29359;53.048;8.732;2023-05-11T07:42:27;101659.59;;;13.59;74.06
43745;BME280;29359;53.048;8.732;2023-05-11T07:44:28;101653.28;;;13.63;73.78
43745;BME280;29359;53.048;8.732;2023-05-11T07:46:30;101657.59;;;13.67;73.43
43745;BME280;29359;53.048;8.732;2023-05-11T07:48:31;101657.56;;;13.68;72.16
43745;BME280;29359;53.048;8.732;2023-05-11T07:50:33;101659.16;;;13.74;72.04
43745;BME280;29359;53.048;8.732;2023-05-11T07:52:35;101658.16;;;13.78;71.13
43745;BME280;29359;53.048;8.732;2023-05-11T07:54:36;101658.94;;;13.81;71.27
43745;BME280;29359;53.048;8.732;2023-05-11T07:56:38;101660.56;;;13.87;71.43
43745;BME280;29359;53.048;8.732;2023-05-11T07:58:39;101658.66;;;13.92;71.66
43745;BME280;29359;53.048;8.732;2023-05-11T08:00:41;101662.94;;;13.98;76.03
43745;BME280;29359;53.048;8.732;2023-05-11T08:02:42;101659.44;;;13.96;73.51
43745;BME280;29359;53.048;8.732;2023-05-11T08:04:45;101666.41;;;14.00;72.11
43745;BME280;29359;53.048;8.732;2023-05-11T08:06:46;101664.56;;;14.02;71.71
43745;BME280;29359;53.048;8.732;2023-05-11T08:08:48;101661.78;;;14.06;71.67
43745;BME280;29359;53.048;8.732;2023-05-11T08:10:50;101662.56;;;14.10;71.35
43745;BME280;29359;53.048;8.732;2023-05-11T08:12:52;101657.94;;;14.17;71.43
43745;BME280;29359;53.048;8.732;2023-05-11T08:14:53;101668.38;;;14.23;71.28
43745;BME280;29359;53.048;8.732;2023-05-11T08:16:55;101662.09;;;14.25;70.51
43745;BME280;29359;53.048;8.732;2023-05-11T08:18:57;101667.25;;;14.31;71.00
43745;BME280;29359;53.048;8.732;2023-05-11T08:20:58;101667.16;;;14.34;70.28
43745;BME280;29359;53.048;8.732;2023-05-11T08:23:00;101663.44;;;14.40;70.55
43745;BME280;29359;53.048;8.732;2023-05-11T08:25:02;101671.34;;;14.43;70.45
43745;BME280;29359;53.048;8.732;2023-05-11T08:27:04;101671.19;;;14.48;71.20
43745;BME280;29359;53.048;8.732;2023-05-11T08:29:06;101670.19;;;14.52;71.99
43745;BME280;29359;53.048;8.732;2023-05-11T08:31:07;101670.00;;;14.58;73.17
43745;BME280;29359;53.048;8.732;2023-05-11T08:33:09;101665.41;;;14.63;75.38
43745;BME280;29359;53.048;8.732;2023-05-11T08:35:31;101673.28;;;14.66;74.98
43745;BME280;29359;53.048;8.732;2023-05-11T08:37:33;101666.91;;;14.71;74.86
43745;BME280;29359;53.048;8.732;2023-05-11T08:39:35;101666.81;;;14.74;72.13
43745;BME280;29359;53.048;8.732;2023-05-11T08:41:48;101661.50;;;14.74;70.85
43745;BME280;29359;53.048;8.732;2023-05-11T08:43:53;101675.66;;;14.75;70.21
43745;BME280;29359;53.048;8.732;2023-05-11T08:45:56;101673.69;;;14.82;70.38
43745;BME280;29359;53.048;8.732;2023-05-11T08:48:02;101675.31;;;14.86;70.99
43745;BME280;29359;53.048;8.732;2023-05-11T08:50:04;101671.69;;;14.88;70.68
43745;BME280;29359;53.048;8.732;2023-05-11T08:52:05;101675.88;;;14.95;70.92
43745;BME280;29359;53.048;8.732;2023-05-11T08:54:08;101677.41;;;15.02;75.44
43745;BME280;29359;53.048;8.732;2023-05-11T08:56:11;101674.34;;;14.88;78.37
43745;BME280;29359;53.048;8.732;2023-05-11T08:58:13;101678.94;;;14.83;79.39
43745;BME280;29359;53.048;8.732;2023-05-11T09:00:20;101677.09;;;14.85;73.70
43745;BME280;29359;53.048;8.732;2023-05-11T09:02:24;101676.81;;;14.94;72.07
43745;BME280;29359;53.048;8.732;2023-05-11T09:04:26;101677.38;;;15.04;71.45
43745;BME280;29359;53.048;8.732;2023-05-11T09:06:29;101676.34;;;15.08;70.61
43745;BME280;29359;53.048;8.732;2023-05-11T09:08:33;101681.34;;;15.17;70.76
43745;BME280;29359;53.048;8.732;2023-05-11T09:10:36;101682.19;;;15.19;70.18
43745;BME280;29359;53.048;8.732;2023-05-11T09:12:38;101689.00;;;15.28;73.14
43745;BME280;29359;53.048;8.732;2023-05-11T09:14:39;101678.25;;;15.31;74.31
43745;BME280;29359;53.048;8.732;2023-05-11T09:16:41;101678.91;;;15.37;75.26
43745;BME280;29359;53.048;8.732;2023-05-11T09:18:50;101683.91;;;15.47;75.64
43745;BME280;29359;53.048;8.732;2023-05-11T09:20:53;101680.97;;;15.54;72.18
43745;BME280;29359;53.048;8.732;2023-05-11T09:22:55;101679.81;;;15.63;70.38
43745;BME280;29359;53.048;8.732;2023-05-11T09:24:56;101677.94;;;15.66;69.78
43745;BME280;29359;53.048;8.732;2023-05-11T09:27:08;101679.66;;;15.67;69.53
43745;BME280;29359;53.048;8.732;2023-05-11T09:29:10;101686.63;;;15.72;69.65
43745;BME280;29359;53.048;8.732;2023-05-11T09:31:11;101681.22;;;15.73;73.47
43745;BME280;29359;53.048;8.732;2023-05-11T09:33:20;101684.94;;;15.69;75.50
43745;BME280;29359;53.048;8.732;2023-05-11T09:35:30;101677.53;;;15.77;74.67
43745;BME280;29359;53.048;8.732;2023-05-11T09:37:32;101682.63;;;15.83;71.86
43745;BME280;29359;53.048;8.732;2023-05-11T09:39:35;101678.97;;;15.86;70.00
43745;BME280;29359;53.048;8.732;2023-05-11T09:42:17;101674.53;;;15.86;69.76
43745;BME280;29359;53.048;8.732;2023-05-11T09:44:19;101686.88;;;15.89;69.61
43745;BME280;29359;53.048;8.732;2023-05-11T09:46:20;101690.97;;;15.97;70.14
43745;BME280;29359;53.048;8.732;2023-05-11T09:48:25;101684.53;;;16.05;69.89
43745;BME280;29359;53.048;8.732;2023-05-11T09:50:31;101683.38;;;16.12;69.40
43745;BME280;29359;53.048;8.732;2023-05-11T09:52:33;101684.06;;;16.17;69.08
43745;BME280;29359;53.048;8.732;2023-05-11T09:54:43;101676.75;;;16.22;69.36
43745;BME280;29359;53.048;8.732;2023-05-11T09:56:53;101683.53;;;16.30;69.10
43745;BME280;29359;53.048;8.732;2023-05-11T09:58:54;101685.09;;;16.36;68.82
43745;BME280;29359;53.048;8.732;2023-05-11T10:00:58;101682.97;;;16.44;68.57
43745;BME280;29359;53.048;8.732;2023-05-11T10:03:04;101681.84;;;16.51;68.94
43745;BME280;29359;53.048;8.732;2023-05-11T10:05:11;101680.78;;;16.55;68.71
43745;BME280;29359;53.048;8.732;2023-05-11T10:07:23;101680.56;;;16.61;68.87
43745;BME280;29359;53.048;8.732;2023-05-11T10:09:25;101676.88;;;16.64;68.67
43745;BME280;29359;53.048;8.732;2023-05-11T10:11:27;101675.97;;;16.65;68.69
43745;BME280;29359;53.048;8.732;2023-05-11T10:13:29;101668.75;;;16.69;68.63
43745;BME280;29359;53.048;8.732;2023-05-11T10:15:33;101678.34;;;16.73;68.80
43745;BME280;29359;53.048;8.732;2023-05-11T10:17:36;101673.50;;;16.82;68.88
43745;BME280;29359;53.048;8.732;2023-05-11T10:19:38;101671.44;;;16.89;68.57
43745;BME280;29359;53.048;8.732;2023-05-11T10:21:39;101680.44;;;16.86;68.47
43745;BME280;29359;53.048;8.732;2023-05-11T10:23:41;101676.03;;;16.85;69.06
43745;BME280;29359;53.048;8.732;2023-05-11T10:25:43;101673.19;;;16.90;69.11
43745;BME280;29359;53.048;8.732;2023-05-11T10:27:45;101672.38;;;16.88;68.74
43745;BME280;29359;53.048;8.732;2023-05-11T10:29:47;101671.56;;;16.86;69.09
43745;BME280;29359;53.048;8.732;2023-05-11T10:31:50;101668.22;;;16.81;69.22
43745;BME280;29359;53.048;8.732;2023-05-11T10:33:52;101678.09;;;16.79;69.39
43745;BME280;29359;53.048;8.732;2023-05-11T10:35:54;101672.94;;;16.74;69.86
43745;BME280;29359;53.048;8.732;2023-05-11T10:37:56;101670.16;;;16.77;70.01
43745;BME280;29359;53.048;8.732;2023-05-11T10:39:58;101666.56;;;16.78;70.08
43745;BME280;29359;53.048;8.732;2023-05-11T10:46:36;101666.38;;;16.83;70.31
43745;BME280;29359;53.048;8.732;2023-05-11T10:48:49;101669.03;;;16.83;70.28
43745;BME280;29359;53.048;8.732;2023-05-11T10:57:56;101668.19;;;17.04;70.10
43745;BME280;29359;53.048;8.732;2023-05-11T11:00:35;101671.66;;;17.06;69.81
43745;BME280;29359;53.048;8.732;2023-05-11T11:02:48;101671.03;;;17.00;69.70
43745;BME280;29359;53.048;8.732;2023-05-11T11:04:50;101665.63;;;17.01;70.20
43745;BME280;29359;53.048;8.732;2023-05-11T11:07:05;101665.56;;;17.03;70.11